Terminal Aerodrome Forecast
Issued by NWS

Home | Current Version | Previous Version | Text Only | Print | Product List | Glossary On
Versions: 1 2 3 4 5 6 7 8 9 10 11 12 13 14 15 16 17 18
000
FTUS43 KGLD 190850 AAA
TAFMCK
TAF AMD
KMCK 190850Z 1909/2006 VRB04KT 1SM BR FEW007 SCT150
      TEMPO 1909/1913 3SM BR SKC
     FM191500 18009KT P6SM FEW200
     FM191900 18015G23KT P6SM FEW100
     FM200200 17010KT P6SM FEW200=

USA.gov is the U.S. government's official web portal to all federal, state and local government web resources and services.